Time;durP1;ratioP1;P1;durP2;ratioP2;P2;SDS_P1;SDS_P2;PMS_P1;PMS_P2;Temp;Humidity;BMP_temperature;BMP_pressure;BME280_temperature;BME280_humidity;BME280_pressure;Samples;Min_cycle;Max_cycle;Signal;HPM_P1;HPM_P2
2022/10/05 00:00:53;;;;;;;6.63;3.75;;;13.20;99.90;;;;;;5041381;28;20056;-44
2022/10/05 00:03:21;;;;;;;8.02;3.20;;;13.20;99.90;;;;;;5040565;28;20064;-45
2022/10/05 00:05:48;;;;;;;8.98;3.70;;;13.30;99.90;;;;;;5041878;28;20430;-44
2022/10/05 00:08:24;;;;;;;9.70;3.28;;;13.30;99.90;;;;;;5042804;28;20108;-46
2022/10/05 00:10:50;;;;;;;5.22;3.13;;;13.30;99.90;;;;;;5042460;28;20229;-44
2022/10/05 00:13:20;;;;;;;9.90;4.00;;;13.30;99.90;;;;;;5040165;28;20029;-45
2022/10/05 00:15:47;;;;;;;9.88;3.40;;;13.40;99.90;;;;;;5041593;28;20013;-44
2022/10/05 00:18:17;;;;;;;7.45;3.65;;;13.40;99.90;;;;;;5042664;28;20064;-44
2022/10/05 00:20:45;;;;;;;6.35;3.38;;;13.30;99.90;;;;;;5039508;28;20034;-44
2022/10/05 00:23:17;;;;;;;10.57;4.25;;;13.30;99.90;;;;;;5049560;28;20088;-44
2022/10/05 00:25:43;;;;;;;9.27;3.70;;;13.30;99.90;;;;;;5041239;28;20049;-45
2022/10/05 00:28:21;;;;;;;10.15;3.83;;;13.30;99.90;;;;;;5041109;28;20121;-45
2022/10/05 00:30:47;;;;;;;7.32;3.33;;;13.30;99.90;;;;;;5040323;28;20116;-44
2022/10/05 00:33:12;;;;;;;10.70;4.05;;;13.20;99.90;;;;;;5039852;28;20104;-44
2022/10/05 00:35:38;;;;;;;8.00;3.85;;;13.20;99.90;;;;;;5039029;28;20101;-44
2022/10/05 00:38:04;;;;;;;7.53;4.00;;;13.20;99.90;;;;;;5041341;28;20297;-45
2022/10/05 00:41:01;;;;;;;8.15;3.95;;;13.20;99.90;;;;;;5042100;28;20530;-44
2022/10/05 00:44:04;;;;;;;9.57;3.78;;;13.20;99.90;;;;;;5041219;28;20025;-43
2022/10/05 00:46:58;;;;;;;11.10;4.65;;;13.20;99.90;;;;;;5041958;28;20390;-43
2022/10/05 00:49:52;;;;;;;7.22;4.05;;;13.10;99.90;;;;;;5030783;28;20548;-43
2022/10/05 00:52:37;;;;;;;8.45;4.55;;;13.10;99.90;;;;;;5046053;28;20029;-43
2022/10/05 00:55:15;;;;;;;12.45;4.68;;;13.00;99.90;;;;;;5042182;28;20501;-43
2022/10/05 00:58:05;;;;;;;12.38;4.78;;;13.00;99.90;;;;;;5052087;28;20056;-43
2022/10/05 01:00:37;;;;;;;8.38;4.80;;;12.90;99.90;;;;;;5040188;28;20387;-44
2022/10/05 01:03:12;;;;;;;8.05;4.80;;;12.90;99.90;;;;;;5039595;28;20036;-45
2022/10/05 01:05:53;;;;;;;11.85;5.10;;;12.90;99.90;;;;;;5039081;28;20018;-44
2022/10/05 01:08:44;;;;;;;7.63;4.60;;;12.80;99.90;;;;;;5039775;28;20017;-45
2022/10/05 01:11:19;;;;;;;12.73;5.32;;;12.80;99.90;;;;;;5041038;28;20360;-43
2022/10/05 01:13:57;;;;;;;10.43;5.45;;;12.80;99.90;;;;;;5039761;28;20387;-44
2022/10/05 01:16:39;;;;;;;11.57;5.30;;;12.80;99.90;;;;;;5040079;28;20018;-44
2022/10/05 01:19:30;;;;;;;7.20;4.50;;;12.70;99.90;;;;;;5040329;28;20029;-43
2022/10/05 01:22:27;;;;;;;11.15;4.88;;;12.70;99.90;;;;;;5041240;28;20104;-43
2022/10/05 01:25:25;;;;;;;11.52;5.05;;;12.70;99.90;;;;;;5038608;28;20136;-44
2022/10/05 01:28:02;;;;;;;8.38;4.78;;;12.80;99.90;;;;;;5046871;28;20029;-43
2022/10/05 01:30:35;;;;;;;10.10;4.65;;;12.80;99.90;;;;;;5038499;28;20017;-44
2022/10/05 01:33:10;;;;;;;9.98;4.80;;;12.80;99.90;;;;;;5038856;28;20125;-44
2022/10/05 01:35:43;;;;;;;13.65;4.88;;;12.80;99.90;;;;;;5038950;28;20060;-44
2022/10/05 01:38:26;;;;;;;16.77;5.53;;;12.80;99.90;;;;;;5039753;28;20556;-44
2022/10/05 01:41:23;;;;;;;9.73;4.50;;;12.80;99.90;;;;;;5040599;28;20108;-44
2022/10/05 01:43:58;;;;;;;9.65;4.97;;;12.90;99.90;;;;;;5038142;28;20024;-43
2022/10/05 01:46:36;;;;;;;9.70;4.22;;;12.90;99.90;;;;;;5040286;28;20018;-43
2022/10/05 01:49:30;;;;;;;11.15;5.05;;;12.90;99.90;;;;;;5039459;28;20399;-43
2022/10/05 01:52:19;;;;;;;10.50;4.57;;;12.90;99.90;;;;;;5040999;28;20057;-43
2022/10/05 01:55:04;;;;;;;9.20;4.43;;;13.00;99.90;;;;;;5037260;28;20506;-43
2022/10/05 01:58:07;;;;;;;12.18;4.60;;;13.00;99.90;;;;;;5046783;28;20474;-43
2022/10/05 02:00:43;;;;;;;10.18;4.50;;;13.00;99.90;;;;;;5040733;28;20021;-43
2022/10/05 02:03:18;;;;;;;9.30;4.40;;;13.00;99.90;;;;;;5039347;28;20029;-44
2022/10/05 02:06:10;;;;;;;9.23;4.65;;;13.10;99.90;;;;;;5039158;28;20424;-43
2022/10/05 02:08:45;;;;;;;7.47;4.18;;;13.20;99.90;;;;;;5035299;28;20076;-45
2022/10/05 02:11:12;;;;;;;7.57;4.07;;;13.10;99.90;;;;;;5038604;28;20524;-45
2022/10/05 02:13:51;;;;;;;10.93;4.03;;;13.20;99.90;;;;;;5038117;28;20022;-44
2022/10/05 02:16:36;;;;;;;8.85;4.88;;;13.10;99.90;;;;;;5037465;28;20038;-44
2022/10/05 02:19:16;;;;;;;8.00;4.45;;;13.10;99.90;;;;;;5038983;28;20257;-47
2022/10/05 02:21:47;;;;;;;9.90;4.47;;;13.10;99.90;;;;;;5038902;28;20013;-45
2022/10/05 02:24:21;;;;;;;7.10;4.13;;;13.10;99.90;;;;;;5038333;28;20036;-45
2022/10/05 02:26:48;;;;;;;9.40;4.07;;;13.10;99.90;;;;;;5045351;28;20018;-45
2022/10/05 02:29:17;;;;;;;11.02;4.30;;;13.10;99.90;;;;;;5040960;28;20120;-45
2022/10/05 02:31:45;;;;;;;8.75;3.78;;;13.20;99.90;;;;;;5039800;28;20009;-46
2022/10/05 02:34:23;;;;;;;12.98;4.05;;;13.20;99.90;;;;;;5039594;28;20091;-45
2022/10/05 02:37:13;;;;;;;8.80;3.42;;;13.20;99.90;;;;;;5039644;28;20302;-44
2022/10/05 02:39:46;;;;;;;11.52;4.18;;;13.20;99.90;;;;;;5038151;28;20021;-45
2022/10/05 02:42:23;;;;;;;7.72;4.38;;;13.10;99.90;;;;;;5038607;28;20542;-45
2022/10/05 02:45:09;;;;;;;10.82;4.32;;;13.10;99.90;;;;;;5039486;28;20045;-45
2022/10/05 02:47:52;;;;;;;18.80;4.07;;;13.00;99.90;;;;;;5039911;28;20023;-44
2022/10/05 02:50:28;;;;;;;11.35;4.28;;;13.00;99.90;;;;;;5038629;28;20018;-45
2022/10/05 02:53:19;;;;;;;6.38;4.15;;;13.00;99.90;;;;;;5039525;28;20056;-45
2022/10/05 02:55:57;;;;;;;11.90;4.30;;;12.90;99.90;;;;;;5039142;28;20502;-44
2022/10/05 02:58:26;;;;;;;7.28;4.10;;;13.00;99.90;;;;;;5046171;28;20040;-47
2022/10/05 03:01:23;;;;;;;7.15;4.20;;;13.00;99.90;;;;;;5039988;28;20026;-44
2022/10/05 03:04:21;;;;;;;9.20;5.03;;;13.10;99.90;;;;;;5037313;28;20487;-45
2022/10/05 03:07:30;;;;;;;7.72;4.07;;;13.10;99.90;;;;;;5038827;28;20284;-45
2022/10/05 03:10:04;;;;;;;12.25;4.82;;;13.10;99.90;;;;;;5034067;28;20060;-46
2022/10/05 03:12:49;;;;;;;9.57;4.25;;;13.10;99.90;;;;;;5038691;28;20028;-46
2022/10/05 03:15:23;;;;;;;8.60;4.32;;;13.10;99.90;;;;;;5042096;28;20083;-45
2022/10/05 03:18:12;;;;;;;10.93;5.43;;;13.10;99.90;;;;;;5038931;28;20479;-46
2022/10/05 03:21:06;;;;;;;6.35;4.55;;;13.20;99.90;;;;;;5039558;28;20143;-45
2022/10/05 03:24:03;;;;;;;7.85;4.95;;;13.10;99.90;;;;;;5037870;28;20556;-44
2022/10/05 03:26:41;;;;;;;11.35;5.10;;;13.10;99.90;;;;;;5045402;28;20164;-44
2022/10/05 03:29:18;;;;;;;8.35;4.85;;;13.10;99.90;;;;;;5044264;28;20066;-45
2022/10/05 03:31:52;;;;;;;9.13;4.82;;;13.10;99.90;;;;;;5042225;28;20026;-46
2022/10/05 03:34:44;;;;;;;8.10;4.95;;;13.10;99.90;;;;;;5041225;28;20025;-44
2022/10/05 03:37:21;;;;;;;14.82;5.22;;;13.10;99.90;;;;;;5037463;28;20051;-46
2022/10/05 03:40:19;;;;;;;12.63;5.50;;;13.00;99.90;;;;;;5042424;28;20032;-44
2022/10/05 03:43:00;;;;;;;15.52;6.20;;;12.90;99.90;;;;;;5041509;28;20023;-48
2022/10/05 03:45:40;;;;;;;14.63;5.88;;;12.80;99.90;;;;;;5042129;28;20025;-44
2022/10/05 03:48:13;;;;;;;11.77;5.95;;;12.80;99.90;;;;;;5042308;28;20018;-44
2022/10/05 03:50:45;;;;;;;10.13;5.13;;;12.80;99.90;;;;;;5041076;28;20020;-45
2022/10/05 03:53:20;;;;;;;8.90;5.15;;;12.70;99.90;;;;;;5039950;28;20028;-44
2022/10/05 03:55:52;;;;;;;10.93;6.00;;;12.70;99.90;;;;;;5043288;28;20029;-45
2022/10/05 03:58:28;;;;;;;10.45;5.20;;;12.70;99.90;;;;;;5049847;28;20044;-44
2022/10/05 04:00:58;;;;;;;13.57;6.22;;;12.70;99.90;;;;;;5042788;28;20057;-46
2022/10/05 04:03:24;;;;;;;;;;;12.70;99.90;;;;;;5041377;28;20104;-44
2022/10/05 04:05:54;;;;;;;16.30;5.75;;;12.70;99.90;;;;;;5041466;28;19936;-45
2022/10/05 04:08:31;;;;;;;10.25;6.63;;;12.70;99.90;;;;;;5041596;28;20021;-44
2022/10/05 04:11:02;;;;;;;9.73;5.63;;;12.80;99.90;;;;;;5055984;28;20375;-44
2022/10/05 04:13:36;;;;;;;12.82;5.45;;;12.70;99.90;;;;;;5040513;28;20033;-44
2022/10/05 04:16:12;;;;;;;8.68;5.78;;;12.70;99.90;;;;;;5038901;28;20212;-44
2022/10/05 04:18:43;;;;;;;11.73;5.25;;;12.70;99.90;;;;;;5030702;28;20032;-44
2022/10/05 04:21:20;;;;;;;8.35;5.22;;;12.80;99.90;;;;;;5031884;28;20056;-44
2022/10/05 04:23:54;;;;;;;8.43;5.22;;;12.80;99.90;;;;;;5031361;28;20487;-44
2022/10/05 04:26:36;;;;;;;9.65;5.28;;;12.80;99.90;;;;;;5037988;28;20043;-44
2022/10/05 04:29:21;;;;;;;8.27;5.28;;;12.80;99.90;;;;;;5054944;28;20021;-45
2022/10/05 04:32:19;;;;;;;11.70;5.65;;;12.90;99.90;;;;;;5044074;28;20033;-44
2022/10/05 04:35:37;;;;;;;13.68;5.93;;;12.80;99.90;;;;;;5040841;28;20013;-45
2022/10/05 04:38:26;;;;;;;13.48;5.47;;;12.90;99.90;;;;;;5027373;28;20029;-47
2022/10/05 04:41:19;;;;;;;11.93;5.82;;;12.80;99.90;;;;;;5031230;28;20029;-45
2022/10/05 04:44:12;;;;;;;12.38;5.68;;;12.80;99.90;;;;;;5030839;28;20467;-46
2022/10/05 04:47:00;;;;;;;17.77;6.10;;;12.80;99.90;;;;;;5029914;28;20076;-45
2022/10/05 04:49:53;;;;;;;12.90;5.70;;;12.80;99.90;;;;;;5031613;28;20025;-46
2022/10/05 04:52:34;;;;;;;9.10;5.10;;;12.70;99.90;;;;;;5031294;28;20091;-44
2022/10/05 04:55:18;;;;;;;14.60;5.97;;;12.70;99.90;;;;;;5031431;28;20037;-45
2022/10/05 04:58:18;;;;;;;15.48;6.50;;;12.60;99.90;;;;;;5063259;28;20021;-45
2022/10/05 05:01:00;;;;;;;13.77;6.00;;;12.60;99.90;;;;;;5071712;28;20408;-46
2022/10/05 05:03:44;;;;;;;12.18;5.80;;;12.50;99.90;;;;;;5070590;28;20303;-45
2022/10/05 05:06:42;;;;;;;8.10;5.25;;;12.50;99.90;;;;;;5071223;28;20309;-45
2022/10/05 05:09:52;;;;;;;11.45;5.20;;;12.50;99.90;;;;;;5052579;28;20037;-47
2022/10/05 05:12:43;;;;;;;11.10;5.72;;;12.50;99.90;;;;;;5050328;28;20025;-47
2022/10/05 05:15:39;;;;;;;8.85;5.25;;;12.50;99.90;;;;;;5049296;28;20481;-47
2022/10/05 05:18:33;;;;;;;15.80;5.97;;;12.50;99.90;;;;;;5068520;28;20453;-47
2022/10/05 05:21:15;;;;;;;12.85;6.03;;;12.50;99.90;;;;;;5071066;28;20036;-45
2022/10/05 05:23:56;;;;;;;12.77;7.07;;;12.50;99.90;;;;;;5070088;28;20029;-45
2022/10/05 05:26:52;;;;;;;10.10;5.45;;;12.60;99.90;;;;;;5052089;28;20530;-45
2022/10/05 05:29:42;;;;;;;9.00;5.13;;;12.60;99.90;;;;;;5044638;28;20017;-47
2022/10/05 05:32:22;;;;;;;11.18;5.88;;;12.60;99.90;;;;;;5051436;28;20125;-44
2022/10/05 05:34:54;;;;;;;9.63;5.63;;;12.60;99.90;;;;;;5054054;28;20530;-44
2022/10/05 05:37:35;;;;;;;6.30;4.63;;;12.60;99.90;;;;;;5040039;28;20032;-45
2022/10/05 05:40:24;;;;;;;10.23;5.43;;;12.60;99.90;;;;;;5047674;28;20029;-44
2022/10/05 05:42:59;;;;;;;8.45;5.75;;;12.60;99.90;;;;;;5026619;28;20095;-45
2022/10/05 05:45:39;;;;;;;9.05;5.15;;;12.60;99.90;;;;;;5029280;28;20021;-44
2022/10/05 05:48:36;;;;;;;14.85;6.50;;;12.60;99.90;;;;;;5030356;28;20029;-44
2022/10/05 05:51:14;;;;;;;13.52;5.50;;;12.60;99.90;;;;;;5027193;28;20034;-44
2022/10/05 05:53:42;;;;;;;13.07;5.38;;;12.70;99.90;;;;;;5029663;28;20029;-45
2022/10/05 05:56:17;;;;;;;12.68;5.95;;;12.70;99.90;;;;;;5046823;28;20460;-46
2022/10/05 05:58:46;;;;;;;10.13;5.90;;;12.70;99.90;;;;;;5061617;28;20104;-45
2022/10/05 06:01:27;;;;;;;8.20;5.55;;;12.70;99.90;;;;;;5070231;28;20024;-45
2022/10/05 06:04:01;;;;;;;11.88;5.22;;;12.70;99.90;;;;;;5069865;28;20021;-44
2022/10/05 06:06:31;;;;;;;12.38;6.15;;;12.80;99.90;;;;;;5070244;28;20028;-45
2022/10/05 06:09:01;;;;;;;9.50;5.53;;;12.70;99.90;;;;;;5070400;28;20016;-45
2022/10/05 06:11:39;;;;;;;14.15;6.07;;;12.80;99.90;;;;;;5051108;28;20040;-45
2022/10/05 06:14:23;;;;;;;12.18;6.18;;;12.80;99.90;;;;;;5060991;28;20094;-45
2022/10/05 06:16:56;;;;;;;12.23;5.78;;;12.80;99.90;;;;;;5069719;28;20033;-45
2022/10/05 06:19:23;;;;;;;16.27;6.60;;;12.80;99.90;;;;;;5069821;28;20041;-45
2022/10/05 06:22:13;;;;;;;18.83;6.43;;;12.90;99.90;;;;;;5069925;28;20115;-45
2022/10/05 06:25:01;;;;;;;12.23;5.97;;;12.90;99.90;;;;;;5069744;28;20047;-45
2022/10/05 06:27:53;;;;;;;9.95;6.00;;;13.00;99.90;;;;;;5064722;28;20103;-46
2022/10/05 06:30:18;;;;;;;8.30;6.00;;;13.10;99.90;;;;;;5068825;28;20478;-45
2022/10/05 06:33:09;;;;;;;13.82;6.45;;;13.10;99.90;;;;;;5068934;28;20028;-46
2022/10/05 06:35:56;;;;;;;8.48;6.15;;;13.30;99.90;;;;;;5069935;28;20533;-46
2022/10/05 06:38:40;;;;;;;13.15;6.60;;;13.30;99.90;;;;;;5069629;28;20374;-46
2022/10/05 06:41:31;;;;;;;14.60;6.13;;;13.40;99.90;;;;;;5069458;28;20056;-46
2022/10/05 06:44:21;;;;;;;17.83;7.03;;;13.40;99.90;;;;;;5058153;28;20032;-46
2022/10/05 06:47:32;;;;;;;12.38;6.28;;;13.50;99.90;;;;;;5059137;28;20029;-46
2022/10/05 06:50:08;;;;;;;;;;;13.60;99.90;;;;;;5056884;28;20256;-46
2022/10/05 06:52:44;;;;;;;12.15;5.50;;;13.70;99.90;;;;;;5048099;28;20405;-46
2022/10/05 06:55:33;;;;;;;9.60;5.70;;;13.90;99.90;;;;;;5067343;28;20032;-46
2022/10/05 06:58:06;;;;;;;13.07;6.93;;;14.00;99.90;;;;;;5061378;28;20311;-49
2022/10/05 07:00:56;;;;;;;12.30;6.07;;;14.20;99.90;;;;;;5054754;28;20104;-45
2022/10/05 07:03:58;;;;;;;10.32;5.72;;;14.40;99.90;;;;;;5071861;28;20025;-45
2022/10/05 07:06:39;;;;;;;8.70;5.35;;;14.40;99.90;;;;;;5073368;28;20091;-45
2022/10/05 07:09:29;;;;;;;11.15;6.25;;;14.60;99.90;;;;;;5073652;28;20509;-45
2022/10/05 07:12:06;;;;;;;10.67;6.07;;;14.70;99.90;;;;;;5073309;28;20021;-46
2022/10/05 07:15:14;;;;;;;8.23;5.97;;;14.70;99.90;;;;;;5064193;28;20698;-46
2022/10/05 07:17:58;;;;;;;10.60;5.45;;;14.80;99.90;;;;;;5060411;28;20032;-47
2022/10/05 07:20:44;;;;;;;10.82;5.35;;;15.10;99.90;;;;;;5072961;28;20059;-45
2022/10/05 07:23:41;;;;;;;8.55;5.10;;;15.00;99.90;;;;;;5072366;28;20032;-45
2022/10/05 07:26:42;;;;;;;7.75;5.22;;;15.00;99.90;;;;;;5072298;28;20021;-45
2022/10/05 07:29:34;;;;;;;8.43;4.75;;;14.90;99.90;;;;;;5064998;28;20024;-46
2022/10/05 07:32:10;;;;;;;11.30;5.25;;;15.00;99.90;;;;;;5071509;28;20029;-46
2022/10/05 07:35:04;;;;;;;15.55;5.25;;;15.00;99.90;;;;;;5072456;28;20021;-46
2022/10/05 07:37:54;;;;;;;10.55;5.75;;;14.90;99.90;;;;;;5072969;28;20036;-45
2022/10/05 07:40:31;;;;;;;11.00;5.45;;;14.80;99.90;;;;;;5058542;28;20492;-46
2022/10/05 07:43:30;;;;;;;10.25;5.88;;;14.70;99.90;;;;;;5067038;28;20035;-45
2022/10/05 07:46:33;;;;;;;10.52;5.47;;;14.70;99.90;;;;;;5065172;28;20028;-47
2022/10/05 07:49:22;;;;;;;17.33;6.22;;;14.70;99.90;;;;;;5072635;28;20029;-46
2022/10/05 07:51:53;;;;;;;13.80;6.60;;;14.60;99.90;;;;;;5068838;28;20501;-45
2022/10/05 07:54:40;;;;;;;8.10;5.65;;;14.70;99.90;;;;;;5071906;28;20035;-46
2022/10/05 07:57:16;;;;;;;11.77;6.68;;;14.70;99.90;;;;;;5070739;28;20247;-49
2022/10/05 07:59:49;;;;;;;12.98;5.72;;;14.80;99.90;;;;;;5065241;28;20493;-46
2022/10/05 08:02:41;;;;;;;10.52;5.45;;;14.80;99.90;;;;;;5072345;28;20109;-47
2022/10/05 08:05:16;;;;;;;8.35;5.07;;;14.90;99.90;;;;;;5072398;28;20547;-45
2022/10/05 08:07:42;;;;;;;8.00;4.63;;;15.10;99.90;;;;;;5072251;28;20028;-47
2022/10/05 08:10:35;;;;;;;8.60;5.82;;;15.30;99.90;;;;;;5072265;28;20024;-46
2022/10/05 08:13:09;;;;;;;9.93;5.97;;;15.50;99.90;;;;;;5071323;28;20033;-46
2022/10/05 08:15:47;;;;;;;10.30;5.75;;;15.60;99.90;;;;;;5059015;28;20041;-45
2022/10/05 08:18:47;;;;;;;7.53;5.50;;;15.70;99.90;;;;;;5070686;28;20090;-46
2022/10/05 08:21:16;;;;;;;9.05;5.65;;;15.90;99.90;;;;;;5072164;28;20036;-45
2022/10/05 08:23:56;;;;;;;9.30;5.70;;;15.90;99.90;;;;;;5071390;28;20036;-46
2022/10/05 08:26:48;;;;;;;9.77;5.45;;;16.10;99.90;;;;;;5071125;28;20013;-45
2022/10/05 08:29:36;;;;;;;10.30;5.57;;;16.40;99.90;;;;;;5063562;28;20371;-47
2022/10/05 08:32:31;;;;;;;7.28;5.00;;;16.60;99.90;;;;;;5071810;28;20481;-45
2022/10/05 08:35:20;;;;;;;8.07;4.57;;;16.80;99.90;;;;;;5035594;28;20038;-45
2022/10/05 08:37:47;;;;;;;7.13;4.30;;;17.00;99.90;;;;;;5031694;28;20010;-45
2022/10/05 08:40:24;;;;;;;7.97;4.47;;;17.50;99.90;;;;;;5031577;28;20052;-46
2022/10/05 08:43:08;;;;;;;10.70;4.47;;;18.90;99.90;;;;;;5030920;28;20053;-46
2022/10/05 08:46:16;;;;;;;8.82;4.53;;;19.90;99.90;;;;;;5052650;28;20612;-47
2022/10/05 08:49:08;;;;;;;6.80;4.35;;;20.80;99.20;;;;;;5025307;28;20124;-45
2022/10/05 08:51:48;;;;;;;6.70;4.03;;;20.30;99.40;;;;;;5030471;28;20018;-45
2022/10/05 08:54:41;;;;;;;5.70;3.80;;;21.40;98.30;;;;;;5031012;28;20072;-46
2022/10/05 08:57:25;;;;;;;8.60;4.00;;;22.70;95.70;;;;;;5031122;28;20445;-48
2022/10/05 08:59:54;;;;;;;5.30;3.78;;;22.50;94.60;;;;;;5062866;28;20021;-45
2022/10/05 09:02:29;;;;;;;7.93;4.00;;;22.50;93.80;;;;;;5071097;28;20100;-45
2022/10/05 09:05:20;;;;;;;8.77;3.85;;;22.60;93.80;;;;;;5055547;28;20079;-47
2022/10/05 09:08:00;;;;;;;6.57;3.80;;;22.50;93.80;;;;;;5031992;28;20036;-46
2022/10/05 09:10:58;;;;;;;4.15;3.42;;;23.70;91.90;;;;;;5031544;28;20018;-46
2022/10/05 09:13:46;;;;;;;6.25;3.72;;;24.90;89.10;;;;;;5030409;28;20064;-48
2022/10/05 09:16:33;;;;;;;4.05;3.17;;;25.30;86.30;;;;;;5059240;28;20115;-45
2022/10/05 09:19:17;;;;;;;4.20;3.35;;;26.30;81.90;;;;;;5071012;28;20043;-46
2022/10/05 09:22:14;;;;;;;7.55;3.63;;;26.60;79.60;;;;;;5071205;28;20036;-46
2022/10/05 09:25:02;;;;;;;6.93;3.47;;;27.40;77.60;;;;;;5068390;28;20032;-45
2022/10/05 09:27:40;;;;;;;6.93;3.78;;;26.70;76.40;;;;;;5054659;28;20043;-46
2022/10/05 09:30:22;;;;;;;5.50;3.40;;;26.10;76.70;;;;;;5062028;28;20175;-46
2022/10/05 09:33:06;;;;;;;7.95;3.33;;;26.60;74.90;;;;;;5070247;28;20021;-45
2022/10/05 09:36:08;;;;;;;3.53;2.85;;;26.50;74.70;;;;;;5070483;28;20031;-46
2022/10/05 09:38:58;;;;;;;5.85;3.90;;;26.00;76.20;;;;;;5048346;28;20427;-46
2022/10/05 09:41:24;;;;;;;;;;;25.50;76.50;;;;;;5031681;28;20503;-49
2022/10/05 09:44:22;;;;;;;5.60;3.58;;;25.40;78.30;;;;;;5042378;28;19996;-48
2022/10/05 09:47:35;;;;;;;6.07;3.45;;;25.80;76.60;;;;;;5049225;28;20023;-46
2022/10/05 09:50:13;;;;;;;6.43;3.60;;;26.00;75.80;;;;;;5028431;28;20505;-49
2022/10/05 09:53:04;;;;;;;7.28;4.38;;;25.80;77.00;;;;;;5061792;28;20417;-45
2022/10/05 09:55:54;;;;;;;6.53;3.85;;;25.70;74.40;;;;;;5070296;28;20509;-46
2022/10/05 09:58:37;;;;;;;7.43;3.97;;;26.40;74.20;;;;;;5047853;28;20025;-47
2022/10/05 10:02:00;;;;;;;7.38;4.65;;;26.40;73.80;;;;;;5055381;28;20025;-45
2022/10/05 10:04:37;;;;;;;6.05;4.43;;;25.50;74.50;;;;;;5027144;28;20117;-46
2022/10/05 10:07:19;;;;;;;7.97;4.68;;;24.30;76.40;;;;;;5027333;28;20483;-45
2022/10/05 10:09:55;;;;;;;9.75;4.70;;;23.70;78.20;;;;;;5029051;28;20068;-45
2022/10/05 10:12:42;;;;;;;7.47;3.83;;;23.80;80.00;;;;;;5029860;28;20061;-46
2022/10/05 10:15:23;;;;;;;8.07;4.88;;;23.50;79.90;;;;;;5045848;28;20024;-46
2022/10/05 10:18:19;;;;;;;6.78;5.00;;;22.70;81.30;;;;;;5064938;28;20031;-47
2022/10/05 10:21:28;;;;;;;8.20;5.05;;;22.00;84.50;;;;;;5068479;28;20036;-45
2022/10/05 10:24:13;;;;;;;7.25;5.05;;;21.20;87.20;;;;;;5069200;28;20028;-45
2022/10/05 10:27:19;;;;;;;8.82;4.85;;;20.20;90.20;;;;;;5059913;28;20368;-45
2022/10/05 10:30:17;;;;;;;10.18;5.05;;;20.10;90.30;;;;;;5052395;28;20536;-45
2022/10/05 10:33:18;;;;;;;9.55;5.15;;;20.00;90.70;;;;;;5029362;28;20025;-45
2022/10/05 10:35:59;;;;;;;7.78;4.28;;;19.40;92.10;;;;;;5038557;28;20083;-46
2022/10/05 10:38:52;;;;;;;9.10;5.20;;;19.70;91.90;;;;;;5031692;28;20048;-45
2022/10/05 10:41:29;;;;;;;8.23;4.90;;;19.10;92.20;;;;;;5032304;28;20026;-45
2022/10/05 10:44:16;;;;;;;8.02;5.07;;;18.90;93.00;;;;;;5031631;28;20033;-46
2022/10/05 10:47:21;;;;;;;7.50;5.25;;;18.50;93.80;;;;;;5051309;28;20024;-45
2022/10/05 10:50:06;;;;;;;8.52;5.13;;;18.40;94.50;;;;;;5059145;28;20113;-46
2022/10/05 10:53:21;;;;;;;10.35;5.13;;;18.40;94.50;;;;;;5049926;28;20021;-44
2022/10/05 10:56:21;;;;;;;5.88;4.97;;;18.40;94.50;;;;;;5006966;28;20077;-45
2022/10/05 10:59:22;;;;;;;8.40;5.15;;;18.40;94.50;;;;;;5052328;28;20025;-45
2022/10/05 11:02:04;;;;;;;7.43;4.35;;;18.50;94.90;;;;;;5042266;28;20502;-45
2022/10/05 11:04:54;;;;;;;9.80;5.15;;;18.40;94.80;;;;;;5053773;28;20029;-45
2022/10/05 11:07:54;;;;;;;12.02;5.18;;;18.30;95.70;;;;;;5069377;28;20024;-45
2022/10/05 11:10:44;;;;;;;6.37;4.97;;;18.50;95.70;;;;;;5069961;28;20032;-46
2022/10/05 11:13:36;;;;;;;6.37;4.77;;;19.00;95.30;;;;;;5055762;28;20032;-45
2022/10/05 11:16:23;;;;;;;10.45;5.20;;;18.90;95.20;;;;;;5069489;28;20323;-46
2022/10/05 11:19:15;;;;;;;7.25;4.25;;;18.80;95.10;;;;;;5058105;28;20387;-45
2022/10/05 11:22:28;;;;;;;5.72;4.68;;;19.10;95.20;;;;;;5051613;28;20025;-44
2022/10/05 11:25:15;;;;;;;7.20;5.53;;;18.90;94.90;;;;;;5026915;28;20073;-46
2022/10/05 11:27:58;;;;;;;8.73;5.50;;;18.30;95.80;;;;;;5031877;28;20025;-46
2022/10/05 11:30:45;;;;;;;14.05;4.95;;;18.30;96.20;;;;;;5051063;28;20036;-45
2022/10/05 11:33:48;;;;;;;8.00;5.63;;;18.20;96.60;;;;;;5048690;28;20028;-45
2022/10/05 11:36:32;;;;;;;7.88;5.30;;;17.90;96.90;;;;;;5049047;28;20390;-45
2022/10/05 11:39:37;;;;;;;6.32;4.75;;;17.90;97.50;;;;;;5043124;28;20093;-46
2022/10/05 11:42:32;;;;;;;7.18;5.60;;;18.10;96.80;;;;;;5053846;28;20148;-45
2022/10/05 11:45:56;;;;;;;8.05;6.05;;;17.90;97.00;;;;;;5048836;28;20068;-45
2022/10/05 11:48:29;;;;;;;8.00;5.30;;;17.80;97.80;;;;;;5027542;28;20034;-46
2022/10/05 11:51:25;;;;;;;7.75;5.43;;;17.70;97.70;;;;;;5029931;28;20033;-45
2022/10/05 11:54:25;;;;;;;8.15;5.85;;;17.80;97.90;;;;;;5041773;28;20036;-45
2022/10/05 11:57:07;;;;;;;6.40;5.25;;;17.80;98.30;;;;;;5041957;28;20434;-46
2022/10/05 11:59:40;;;;;;;7.00;5.47;;;17.80;98.10;;;;;;5053807;28;20029;-45
2022/10/05 12:02:37;;;;;;;8.00;5.57;;;17.70;98.30;;;;;;5052612;28;20025;-45
2022/10/05 12:05:06;;;;;;;9.73;5.97;;;17.70;98.20;;;;;;5050960;28;20028;-45
2022/10/05 12:07:49;;;;;;;11.50;5.45;;;17.60;98.40;;;;;;5052268;28;20029;-45
2022/10/05 12:10:20;;;;;;;9.25;5.50;;;17.50;98.80;;;;;;5052283;28;20108;-44
2022/10/05 12:13:04;;;;;;;9.27;5.28;;;17.50;98.70;;;;;;5051679;28;20094;-45
2022/10/05 12:15:49;;;;;;;6.10;5.50;;;17.50;98.70;;;;;;5049025;28;20024;-44
2022/10/05 12:18:30;;;;;;;8.18;5.65;;;17.40;99.00;;;;;;5062946;28;20128;-45
2022/10/05 12:21:23;;;;;;;5.85;5.10;;;17.40;99.40;;;;;;5071761;28;20497;-44
2022/10/05 12:24:01;;;;;;;5.35;4.85;;;17.30;98.90;;;;;;5071620;28;20039;-45
2022/10/05 12:26:40;;;;;;;7.32;5.55;;;17.40;99.10;;;;;;5071925;28;20102;-46
2022/10/05 12:29:41;;;;;;;9.88;4.78;;;17.30;99.30;;;;;;5058275;28;20390;-44
2022/10/05 12:32:12;;;;;;;;;;;17.30;99.40;;;;;;5072239;28;20545;-44
2022/10/05 12:34:54;;;;;;;8.73;5.45;;;17.30;99.90;;;;;;5071541;28;19911;-45
2022/10/05 12:37:45;;;;;;;8.65;4.57;;;17.50;99.40;;;;;;5071783;28;20021;-44
2022/10/05 12:40:29;;;;;;;;;;;17.60;99.80;;;;;;5064836;28;20060;-46
2022/10/05 12:43:27;;;;;;;7.40;5.28;;;17.50;98.90;;;;;;5062514;28;19908;-45
2022/10/05 12:45:58;;;;;;;7.78;4.85;;;17.40;99.30;;;;;;5063774;28;20252;-45
2022/10/05 12:48:24;;;;;;;5.80;4.35;;;17.50;99.60;;;;;;5071436;28;20572;-47
2022/10/05 12:50:55;;;;;;;6.85;4.30;;;17.40;99.60;;;;;;5070059;28;20036;-45
2022/10/05 12:53:52;;;;;;;6.93;4.80;;;17.60;99.60;;;;;;5064741;28;20026;-46
2022/10/05 12:56:39;;;;;;;8.68;4.20;;;17.80;98.50;;;;;;5058928;28;20029;-46
2022/10/05 12:59:21;;;;;;;6.03;4.60;;;18.00;98.30;;;;;;5056721;28;20025;-45
2022/10/05 13:02:04;;;;;;;4.90;3.60;;;18.00;98.50;;;;;;5071284;28;20026;-45
2022/10/05 13:05:01;;;;;;;4.95;3.85;;;18.60;97.60;;;;;;5071296;28;20467;-44
2022/10/05 13:07:38;;;;;;;5.88;4.10;;;18.50;96.80;;;;;;5071205;28;20024;-45
2022/10/05 13:10:26;;;;;;;9.80;4.47;;;18.30;97.10;;;;;;5060746;28;20020;-46
2022/10/05 13:13:28;;;;;;;5.47;4.20;;;18.00;97.40;;;;;;5065907;28;20027;-45
2022/10/05 13:16:13;;;;;;;4.90;4.00;;;18.00;98.10;;;;;;5036412;28;20072;-45
2022/10/05 13:19:01;;;;;;;8.07;3.15;;;18.30;97.60;;;;;;5059277;28;20107;-46
2022/10/05 13:21:44;;;;;;;4.50;3.90;;;18.40;97.60;;;;;;5056027;28;20056;-45
2022/10/05 13:24:25;;;;;;;6.43;4.35;;;18.30;97.60;;;;;;5057302;28;20116;-45
2022/10/05 13:26:56;;;;;;;6.80;4.63;;;18.00;97.40;;;;;;5056549;28;20024;-45
2022/10/05 13:29:41;;;;;;;7.50;4.20;;;17.90;97.90;;;;;;5061307;28;20021;-45
2022/10/05 13:32:50;;;;;;;4.93;4.05;;;18.00;98.20;;;;;;5069283;28;20025;-46
2022/10/05 13:35:34;;;;;;;7.20;4.60;;;18.00;97.70;;;;;;5050877;28;20464;-45
2022/10/05 13:38:35;;;;;;;7.93;4.40;;;17.90;98.00;;;;;;5053982;28;20115;-45
2022/10/05 13:41:13;;;;;;;9.50;4.72;;;18.00;97.60;;;;;;5043909;28;20037;-47
2022/10/05 13:44:14;;;;;;;10.07;5.75;;;18.40;97.60;;;;;;5029864;28;20036;-48
2022/10/05 13:47:00;;;;;;;9.07;4.32;;;18.40;97.20;;;;;;5041084;28;20060;-44
2022/10/05 13:49:47;;;;;;;8.05;5.20;;;18.60;97.10;;;;;;5042385;28;20067;-47
2022/10/05 13:52:27;;;;;;;9.88;4.50;;;19.00;96.50;;;;;;5050270;28;20021;-45
2022/10/05 13:55:05;;;;;;;6.43;4.57;;;19.00;96.30;;;;;;5040281;28;20644;-44
2022/10/05 13:58:01;;;;;;;8.48;4.38;;;19.20;97.00;;;;;;5038309;28;20021;-44
2022/10/05 14:00:26;;;;;;;8.13;4.43;;;19.40;96.30;;;;;;5042593;28;20010;-44
2022/10/05 14:02:55;;;;;;;5.78;4.15;;;19.00;95.80;;;;;;5049559;28;20017;-45
2022/10/05 14:05:28;;;;;;;8.30;4.43;;;19.10;96.70;;;;;;5050079;28;20056;-45
2022/10/05 14:08:16;;;;;;;9.40;3.75;;;19.20;95.90;;;;;;5046322;28;20086;-44
2022/10/05 14:10:44;;;;;;;7.47;4.38;;;19.10;96.50;;;;;;5048756;28;20497;-45
2022/10/05 14:13:28;;;;;;;5.68;4.28;;;19.00;95.90;;;;;;5045651;28;20089;-44